ENT4804 DTNH-EPKT
Flight info
| Callsign | ENT4804 |
|---|---|
| Flight time | 2h 19m |
| Altitude | 33000 |
| Route | VAXAL1C VAXAL UA411 TUC UB979 SIRVI UM734 NIBEL/N0444F340 DCT ADAMI DCT ERPEM DCT RONAB/N0443F360 DCT IBENI/N0439F350 DCT LEDVA DCT BAVOK |
| Aircraft | B738/M-SDE2E3FGHIRWXY/LB1 |
Departure
| Time | 2026-05-07 12:10 |
|---|---|
| Airport | Enfidha - Hammamet International Airport (DTNH) |
Arrival
| Time | 2026-05-07 14:29 |
|---|---|
| Airport | Katowice Wojciech Korfanty International Airport (EPKT) |
| Time | Latitude | Longitude | Altitude | Speed | Heading |
|---|---|---|---|---|---|
| 2026-05-07 11:51 | 36.08132 | 10.43905 | 15 ft | 0 kts | 1° |
| 2026-05-07 12:03 | 36.08131 | 10.43905 | 15 ft | 2 kts | 1° |
| 2026-05-07 12:03 | 36.08105 | 10.43906 | 15 ft | 4 kts | 355° |
| 2026-05-07 12:03 | 36.08078 | 10.43910 | 18 ft | 4 kts | 345° |
| 2026-05-07 12:03 | 36.08054 | 10.43922 | 24 ft | 4 kts | 317° |
| 2026-05-07 12:04 | 36.08044 | 10.43941 | 24 ft | 0 kts | 270° |
| 2026-05-07 12:05 | 36.08044 | 10.43939 | 24 ft | 1 kts | 270° |
| 2026-05-07 12:06 | 36.08045 | 10.43882 | 23 ft | 13 kts | 270° |
| 2026-05-07 12:06 | 36.07991 | 10.43802 | 24 ft | 14 kts | 187° |
| 2026-05-07 12:06 | 36.07893 | 10.43797 | 28 ft | 14 kts | 180° |
| 2026-05-07 12:06 | 36.07805 | 10.43797 | 27 ft | 10 kts | 180° |
| 2026-05-07 12:07 | 36.07754 | 10.43754 | 27 ft | 10 kts | 252° |
| 2026-05-07 12:07 | 36.07749 | 10.43637 | 26 ft | 19 kts | 270° |
| 2026-05-07 12:07 | 36.07749 | 10.43431 | 27 ft | 27 kts | 270° |
| 2026-05-07 12:07 | 36.07750 | 10.43201 | 26 ft | 26 kts | 270° |
| 2026-05-07 12:08 | 36.07750 | 10.43056 | 27 ft | 25 kts | 270° |
| 2026-05-07 12:08 | 36.07751 | 10.42838 | 31 ft | 27 kts | 270° |
| 2026-05-07 12:08 | 36.07752 | 10.42604 | 31 ft | 26 kts | 270° |
| 2026-05-07 12:08 | 36.07754 | 10.42383 | 33 ft | 25 kts | 270° |
| 2026-05-07 12:09 | 36.07754 | 10.42179 | 30 ft | 20 kts | 270° |
| 2026-05-07 12:09 | 36.07740 | 10.42058 | 29 ft | 13 kts | 228° |
| 2026-05-07 12:09 | 36.07656 | 10.42044 | 30 ft | 12 kts | 178° |
| 2026-05-07 12:09 | 36.07583 | 10.42077 | 30 ft | 12 kts | 103° |
| 2026-05-07 12:10 | 36.07582 | 10.42341 | 29 ft | 64 kts | 90° |
| 2026-05-07 12:10 | 36.07578 | 10.43189 | 31 ft | 130 kts | 91° |
| 2026-05-07 12:10 | 36.07590 | 10.44464 | 393 ft | 153 kts | 89° |
| 2026-05-07 12:10 | 36.07591 | 10.45810 | 1074 ft | 162 kts | 85° |
| 2026-05-07 12:11 | 36.07911 | 10.47224 | 1401 ft | 187 kts | 57° |
| 2026-05-07 12:11 | 36.08879 | 10.48396 | 1625 ft | 211 kts | 27° |
| 2026-05-07 12:11 | 36.10350 | 10.48755 | 2020 ft | 223 kts | 354° |
| 2026-05-07 12:11 | 36.11861 | 10.48230 | 2654 ft | 227 kts | 341° |
| 2026-05-07 12:12 | 36.13351 | 10.47544 | 3297 ft | 230 kts | 340° |
| 2026-05-07 12:12 | 36.14867 | 10.46834 | 3861 ft | 236 kts | 339° |
| 2026-05-07 12:12 | 36.16469 | 10.46391 | 4488 ft | 240 kts | 358° |
| 2026-05-07 12:12 | 36.18149 | 10.46659 | 5042 ft | 248 kts | 10° |
| 2026-05-07 12:13 | 36.19841 | 10.47199 | 5609 ft | 253 kts | 11° |
| 2026-05-07 12:13 | 36.21561 | 10.47772 | 6166 ft | 258 kts | 10° |
| 2026-05-07 12:13 | 36.23308 | 10.48341 | 6676 ft | 262 kts | 9° |
| 2026-05-07 12:13 | 36.25126 | 10.48920 | 6995 ft | 281 kts | 9° |
| 2026-05-07 12:14 | 36.27057 | 10.49513 | 7528 ft | 289 kts | 5° |
| 2026-05-07 12:14 | 36.29050 | 10.49581 | 8203 ft | 285 kts | 347° |
| 2026-05-07 12:14 | 36.30963 | 10.49021 | 8915 ft | 282 kts | 335° |
| 2026-05-07 12:14 | 36.32809 | 10.48174 | 9569 ft | 284 kts | 332° |
| 2026-05-07 12:15 | 36.34646 | 10.47263 | 9758 ft | 286 kts | 330° |
| 2026-05-07 12:15 | 36.36493 | 10.46343 | 9787 ft | 285 kts | 331° |
| 2026-05-07 12:15 | 36.38340 | 10.45432 | 9792 ft | 286 kts | 331° |
| 2026-05-07 12:15 | 36.40195 | 10.44528 | 9807 ft | 287 kts | 332° |
| 2026-05-07 12:16 | 36.42056 | 10.43629 | 9810 ft | 287 kts | 332° |
| 2026-05-07 12:16 | 36.43924 | 10.42733 | 9808 ft | 288 kts | 332° |
| 2026-05-07 12:16 | 36.45794 | 10.41839 | 9793 ft | 288 kts | 332° |
| 2026-05-07 12:16 | 36.47637 | 10.40962 | 9802 ft | 287 kts | 332° |
| 2026-05-07 12:17 | 36.49524 | 10.40065 | 9802 ft | 287 kts | 332° |
| 2026-05-07 12:17 | 36.51393 | 10.39176 | 9799 ft | 288 kts | 332° |
| 2026-05-07 12:17 | 36.53265 | 10.38286 | 9814 ft | 288 kts | 332° |
| 2026-05-07 12:17 | 36.55140 | 10.37395 | 9814 ft | 289 kts | 332° |
| 2026-05-07 12:18 | 36.57018 | 10.36502 | 9806 ft | 289 kts | 332° |
| 2026-05-07 12:18 | 36.58875 | 10.35619 | 9808 ft | 289 kts | 332° |
| 2026-05-07 12:18 | 36.60752 | 10.34727 | 9801 ft | 289 kts | 333° |
| 2026-05-07 12:18 | 36.62625 | 10.33837 | 9798 ft | 287 kts | 332° |
| 2026-05-07 12:19 | 36.64485 | 10.32951 | 9804 ft | 286 kts | 332° |
| 2026-05-07 12:19 | 36.66341 | 10.32066 | 9801 ft | 285 kts | 332° |
| 2026-05-07 12:19 | 36.68194 | 10.31182 | 9811 ft | 285 kts | 332° |
| 2026-05-07 12:19 | 36.70045 | 10.30299 | 9809 ft | 285 kts | 332° |
| 2026-05-07 12:20 | 36.71900 | 10.29414 | 9809 ft | 285 kts | 332° |
| 2026-05-07 12:20 | 36.73744 | 10.28533 | 9807 ft | 284 kts | 332° |
| 2026-05-07 12:20 | 36.75592 | 10.27650 | 9808 ft | 284 kts | 332° |
| 2026-05-07 12:20 | 36.77439 | 10.26768 | 9810 ft | 284 kts | 332° |
| 2026-05-07 12:21 | 36.79287 | 10.25884 | 9831 ft | 285 kts | 333° |
| 2026-05-07 12:21 | 36.81143 | 10.24995 | 9824 ft | 286 kts | 334° |
| 2026-05-07 12:21 | 36.83009 | 10.24124 | 9817 ft | 288 kts | 338° |
| 2026-05-07 12:21 | 36.85034 | 10.23955 | 9817 ft | 301 kts | 7° |
| 2026-05-07 12:22 | 36.86975 | 10.24999 | 9824 ft | 311 kts | 32° |
| 2026-05-07 12:22 | 36.88677 | 10.26685 | 9824 ft | 314 kts | 37° |
| 2026-05-07 12:22 | 36.90333 | 10.28462 | 9820 ft | 315 kts | 38° |
| 2026-05-07 12:22 | 36.91971 | 10.30246 | 9820 ft | 316 kts | 38° |
| 2026-05-07 12:23 | 36.93635 | 10.32054 | 9801 ft | 317 kts | 38° |
| 2026-05-07 12:23 | 36.95304 | 10.33857 | 9792 ft | 317 kts | 37° |
| 2026-05-07 12:23 | 36.96998 | 10.35676 | 9809 ft | 317 kts | 37° |
| 2026-05-07 12:23 | 36.98649 | 10.37443 | 9807 ft | 316 kts | 37° |
| 2026-05-07 12:24 | 37.00321 | 10.39228 | 9806 ft | 316 kts | 37° |
| 2026-05-07 12:24 | 37.01990 | 10.41007 | 9826 ft | 315 kts | 37° |
| 2026-05-07 12:24 | 37.03653 | 10.42779 | 9823 ft | 313 kts | 38° |
| 2026-05-07 12:24 | 37.05306 | 10.44541 | 9797 ft | 311 kts | 38° |
| 2026-05-07 12:25 | 37.06949 | 10.46292 | 9805 ft | 309 kts | 38° |
| 2026-05-07 12:25 | 37.08585 | 10.48037 | 9796 ft | 307 kts | 38° |
| 2026-05-07 12:25 | 37.10205 | 10.49766 | 9802 ft | 306 kts | 38° |
| 2026-05-07 12:25 | 37.11823 | 10.51493 | 9799 ft | 305 kts | 38° |
| 2026-05-07 12:26 | 37.13442 | 10.53223 | 9799 ft | 305 kts | 38° |
| 2026-05-07 12:26 | 37.15057 | 10.54949 | 9824 ft | 305 kts | 38° |
| 2026-05-07 12:26 | 37.16675 | 10.56680 | 9825 ft | 306 kts | 38° |
| 2026-05-07 12:26 | 37.18299 | 10.58417 | 9813 ft | 307 kts | 38° |
| 2026-05-07 12:27 | 37.19930 | 10.60163 | 9816 ft | 309 kts | 38° |
| 2026-05-07 12:27 | 37.21567 | 10.61916 | 9821 ft | 310 kts | 38° |
| 2026-05-07 12:27 | 37.23211 | 10.63678 | 9822 ft | 311 kts | 38° |
| 2026-05-07 12:27 | 37.24861 | 10.65445 | 9837 ft | 312 kts | 38° |
| 2026-05-07 12:28 | 37.26522 | 10.67220 | 10100 ft | 319 kts | 38° |
| 2026-05-07 12:28 | 37.28277 | 10.69093 | 10273 ft | 341 kts | 38° |
| 2026-05-07 12:28 | 37.30115 | 10.71059 | 10681 ft | 353 kts | 38° |
| 2026-05-07 12:28 | 37.32004 | 10.73083 | 11269 ft | 359 kts | 38° |
| 2026-05-07 12:29 | 37.33913 | 10.75131 | 11916 ft | 363 kts | 38° |
| 2026-05-07 12:29 | 37.35820 | 10.77179 | 12548 ft | 368 kts | 38° |
| 2026-05-07 12:29 | 37.37781 | 10.79285 | 13189 ft | 373 kts | 38° |
| 2026-05-07 12:29 | 37.39770 | 10.81423 | 13831 ft | 379 kts | 38° |
| 2026-05-07 12:30 | 37.41783 | 10.83586 | 14425 ft | 384 kts | 38° |
| 2026-05-07 12:30 | 37.43952 | 10.85559 | 15053 ft | 385 kts | 26° |
| 2026-05-07 12:30 | 37.46364 | 10.86988 | 15732 ft | 384 kts | 16° |
| 2026-05-07 12:30 | 37.48924 | 10.87904 | 16451 ft | 383 kts | 10° |
| 2026-05-07 12:31 | 37.51530 | 10.88707 | 17057 ft | 388 kts | 9° |
| 2026-05-07 12:31 | 37.54175 | 10.89506 | 17648 ft | 394 kts | 9° |
| 2026-05-07 12:31 | 37.56852 | 10.90327 | 18256 ft | 398 kts | 9° |
| 2026-05-07 12:31 | 37.59555 | 10.91173 | 18795 ft | 402 kts | 9° |
| 2026-05-07 12:32 | 37.62289 | 10.92041 | 19339 ft | 406 kts | 9° |
| 2026-05-07 12:32 | 37.65043 | 10.92923 | 19867 ft | 410 kts | 9° |
| 2026-05-07 12:32 | 37.67830 | 10.93819 | 20395 ft | 414 kts | 9° |
| 2026-05-07 12:32 | 37.70640 | 10.94720 | 20926 ft | 419 kts | 9° |
| 2026-05-07 12:33 | 37.76379 | 10.96011 | 21888 ft | 418 kts | 355° |
| 2026-05-07 12:33 | 37.79290 | 10.96003 | 22431 ft | 419 kts | 353° |
| 2026-05-07 12:33 | 37.82219 | 10.95936 | 22931 ft | 423 kts | 352° |
| 2026-05-07 12:34 | 37.85172 | 10.95859 | 23409 ft | 426 kts | 352° |
| 2026-05-07 12:34 | 37.88112 | 10.95792 | 23825 ft | 430 kts | 352° |
| 2026-05-07 12:34 | 37.91115 | 10.95736 | 24233 ft | 433 kts | 352° |
| 2026-05-07 12:34 | 37.94143 | 10.95691 | 24625 ft | 437 kts | 352° |
| 2026-05-07 12:35 | 37.97194 | 10.95654 | 25017 ft | 440 kts | 352° |
| 2026-05-07 12:35 | 38.00270 | 10.95620 | 25407 ft | 444 kts | 352° |
| 2026-05-07 12:35 | 38.03368 | 10.95589 | 25788 ft | 447 kts | 351° |
| 2026-05-07 12:35 | 38.06488 | 10.95558 | 26169 ft | 450 kts | 351° |
| 2026-05-07 12:36 | 38.09631 | 10.95526 | 26522 ft | 453 kts | 351° |
| 2026-05-07 12:36 | 38.12794 | 10.95494 | 26883 ft | 456 kts | 351° |
| 2026-05-07 12:36 | 38.15972 | 10.95462 | 27282 ft | 458 kts | 351° |
| 2026-05-07 12:36 | 38.19169 | 10.95431 | 27741 ft | 459 kts | 351° |
| 2026-05-07 12:37 | 38.22368 | 10.95399 | 28105 ft | 461 kts | 350° |
| 2026-05-07 12:37 | 38.25590 | 10.95364 | 28420 ft | 465 kts | 350° |
| 2026-05-07 12:37 | 38.28837 | 10.95329 | 28731 ft | 468 kts | 350° |
| 2026-05-07 12:37 | 38.32103 | 10.95294 | 29070 ft | 470 kts | 349° |
| 2026-05-07 12:38 | 38.35385 | 10.95260 | 29404 ft | 473 kts | 349° |
| 2026-05-07 12:38 | 38.38683 | 10.95227 | 29753 ft | 475 kts | 349° |
| 2026-05-07 12:38 | 38.41996 | 10.95194 | 30148 ft | 475 kts | 349° |
| 2026-05-07 12:38 | 38.45296 | 10.95162 | 30464 ft | 476 kts | 349° |
| 2026-05-07 12:39 | 38.48614 | 10.95127 | 30700 ft | 478 kts | 349° |
| 2026-05-07 12:39 | 38.51959 | 10.95146 | 30930 ft | 486 kts | 353° |
| 2026-05-07 12:39 | 38.55357 | 10.95755 | 31245 ft | 500 kts | 3° |
| 2026-05-07 12:39 | 38.58733 | 10.96975 | 31564 ft | 509 kts | 11° |
| 2026-05-07 12:40 | 38.62030 | 10.98760 | 31864 ft | 521 kts | 20° |
| 2026-05-07 12:40 | 38.65212 | 11.00995 | 32233 ft | 521 kts | 22° |
| 2026-05-07 12:40 | 38.68330 | 11.03256 | 32519 ft | 522 kts | 22° |
| 2026-05-07 12:40 | 38.71530 | 11.05591 | 32738 ft | 525 kts | 22° |
| 2026-05-07 12:41 | 38.74668 | 11.07869 | 32979 ft | 526 kts | 21° |
| 2026-05-07 12:41 | 38.77856 | 11.10167 | 33275 ft | 526 kts | 21° |
| 2026-05-07 12:41 | 38.81054 | 11.12457 | 33573 ft | 525 kts | 21° |
| 2026-05-07 12:41 | 38.84251 | 11.14736 | 33859 ft | 526 kts | 20° |
| 2026-05-07 12:42 | 38.87460 | 11.17017 | 34047 ft | 528 kts | 20° |
| 2026-05-07 12:42 | 38.90675 | 11.19303 | 34267 ft | 529 kts | 20° |
| 2026-05-07 12:42 | 38.93887 | 11.21593 | 34577 ft | 527 kts | 20° |
| 2026-05-07 12:42 | 38.97084 | 11.23877 | 34908 ft | 525 kts | 20° |
| 2026-05-07 12:43 | 39.00273 | 11.26158 | 35184 ft | 524 kts | 20° |
| 2026-05-07 12:43 | 39.03457 | 11.28438 | 35486 ft | 523 kts | 19° |
| 2026-05-07 12:43 | 39.06639 | 11.30717 | 35679 ft | 523 kts | 19° |
| 2026-05-07 12:43 | 39.09815 | 11.32994 | 35971 ft | 522 kts | 19° |
| 2026-05-07 12:44 | 39.12981 | 11.35269 | 36232 ft | 521 kts | 19° |
| 2026-05-07 12:44 | 39.16135 | 11.37535 | 36499 ft | 520 kts | 19° |
| 2026-05-07 12:44 | 39.19295 | 11.39809 | 36726 ft | 519 kts | 19° |
| 2026-05-07 12:44 | 39.22444 | 11.42077 | 36980 ft | 518 kts | 19° |
| 2026-05-07 12:45 | 39.25584 | 11.44342 | 37312 ft | 516 kts | 18° |
| 2026-05-07 12:45 | 39.28699 | 11.46592 | 37649 ft | 512 kts | 18° |
| 2026-05-07 12:45 | 39.31806 | 11.48840 | 37959 ft | 510 kts | 18° |
| 2026-05-07 12:45 | 39.34904 | 11.51077 | 37948 ft | 513 kts | 18° |
| 2026-05-07 12:46 | 39.41106 | 11.55561 | 37954 ft | 512 kts | 18° |
| 2026-05-07 12:46 | 39.47301 | 11.60063 | 37984 ft | 509 kts | 18° |
| 2026-05-07 12:47 | 39.53457 | 11.64543 | 37954 ft | 506 kts | 18° |
| 2026-05-07 12:47 | 39.59577 | 11.69002 | 37950 ft | 503 kts | 18° |
| 2026-05-07 12:48 | 39.65660 | 11.73443 | 37960 ft | 501 kts | 18° |
| 2026-05-07 12:48 | 39.71745 | 11.77894 | 37975 ft | 501 kts | 17° |
| 2026-05-07 12:49 | 39.77817 | 11.82346 | 37975 ft | 501 kts | 17° |
| 2026-05-07 12:49 | 39.83884 | 11.86804 | 37980 ft | 502 kts | 17° |
| 2026-05-07 12:50 | 39.90075 | 11.90753 | 37981 ft | 486 kts | 7° |
| 2026-05-07 12:50 | 39.96432 | 11.93623 | 37977 ft | 483 kts | 5° |
| 2026-05-07 12:51 | 40.02814 | 11.96414 | 37975 ft | 485 kts | 5° |
| 2026-05-07 12:51 | 40.09203 | 11.99288 | 37978 ft | 487 kts | 6° |
| 2026-05-07 12:52 | 40.15598 | 12.02228 | 37980 ft | 488 kts | 6° |
| 2026-05-07 12:52 | 40.21966 | 12.05178 | 37961 ft | 489 kts | 6° |
| 2026-05-07 12:53 | 40.28382 | 12.08156 | 38015 ft | 489 kts | 6° |
| 2026-05-07 12:53 | 40.34804 | 12.11139 | 37986 ft | 489 kts | 7° |
| 2026-05-07 12:54 | 40.40133 | 12.13619 | 37978 ft | 488 kts | 6° |
| 2026-05-07 12:54 | 40.46523 | 12.16598 | 37979 ft | 486 kts | 6° |
| 2026-05-07 12:55 | 40.52889 | 12.19570 | 37986 ft | 485 kts | 7° |
| 2026-05-07 12:55 | 40.59226 | 12.22535 | 37990 ft | 482 kts | 7° |
| 2026-05-07 12:56 | 40.65529 | 12.25490 | 37981 ft | 479 kts | 6° |
| 2026-05-07 12:56 | 40.71796 | 12.28433 | 38009 ft | 477 kts | 7° |
| 2026-05-07 12:57 | 40.78046 | 12.31372 | 37998 ft | 476 kts | 7° |
| 2026-05-07 12:57 | 40.84268 | 12.34305 | 37987 ft | 475 kts | 7° |
| 2026-05-07 12:58 | 40.90444 | 12.37221 | 38024 ft | 474 kts | 7° |
| 2026-05-07 12:58 | 40.96668 | 12.40165 | 37999 ft | 475 kts | 7° |
| 2026-05-07 12:59 | 41.02897 | 12.43119 | 37994 ft | 475 kts | 7° |
| 2026-05-07 12:59 | 41.09129 | 12.46081 | 37990 ft | 476 kts | 7° |
| 2026-05-07 13:00 | 41.15375 | 12.49054 | 37994 ft | 477 kts | 8° |
| 2026-05-07 13:00 | 41.21630 | 12.52040 | 37993 ft | 478 kts | 8° |
| 2026-05-07 13:01 | 41.27890 | 12.55034 | 37986 ft | 478 kts | 8° |
| 2026-05-07 13:01 | 41.34147 | 12.58031 | 37980 ft | 479 kts | 9° |
| 2026-05-07 13:02 | 41.40413 | 12.61041 | 37984 ft | 479 kts | 9° |
| 2026-05-07 13:02 | 41.46646 | 12.64040 | 37983 ft | 479 kts | 9° |
| 2026-05-07 13:03 | 41.52913 | 12.67061 | 38001 ft | 479 kts | 10° |
| 2026-05-07 13:03 | 41.59180 | 12.70089 | 37994 ft | 479 kts | 10° |
| 2026-05-07 13:04 | 41.65438 | 12.73119 | 37998 ft | 479 kts | 10° |
| 2026-05-07 13:04 | 41.71699 | 12.76156 | 38005 ft | 479 kts | 11° |
| 2026-05-07 13:05 | 41.77970 | 12.79205 | 37981 ft | 479 kts | 11° |
| 2026-05-07 13:05 | 41.84208 | 12.82246 | 38030 ft | 476 kts | 11° |
| 2026-05-07 13:06 | 41.90438 | 12.85287 | 38038 ft | 476 kts | 12° |
| 2026-05-07 13:06 | 41.96670 | 12.88335 | 38028 ft | 476 kts | 12° |
| 2026-05-07 13:07 | 42.02895 | 12.91385 | 38015 ft | 477 kts | 12° |
| 2026-05-07 13:07 | 42.09085 | 12.94425 | 38004 ft | 477 kts | 12° |
| 2026-05-07 13:08 | 42.15318 | 12.97494 | 37991 ft | 477 kts | 12° |
| 2026-05-07 13:08 | 42.21542 | 13.00565 | 38012 ft | 475 kts | 12° |
| 2026-05-07 13:09 | 42.27725 | 13.03624 | 38040 ft | 472 kts | 12° |
| 2026-05-07 13:09 | 42.33909 | 13.06684 | 38027 ft | 474 kts | 13° |
| 2026-05-07 13:10 | 42.40118 | 13.09763 | 38013 ft | 476 kts | 13° |
| 2026-05-07 13:10 | 42.46346 | 13.12861 | 37977 ft | 477 kts | 13° |
| 2026-05-07 13:11 | 42.52583 | 13.15972 | 37998 ft | 478 kts | 14° |
| 2026-05-07 13:11 | 42.58791 | 13.19073 | 37991 ft | 479 kts | 14° |
| 2026-05-07 13:12 | 42.65085 | 13.22225 | 37991 ft | 479 kts | 14° |
| 2026-05-07 13:12 | 42.71335 | 13.25361 | 37993 ft | 478 kts | 14° |
| 2026-05-07 13:13 | 42.77543 | 13.28482 | 37999 ft | 479 kts | 14° |
| 2026-05-07 13:13 | 42.83800 | 13.31635 | 37987 ft | 480 kts | 14° |
| 2026-05-07 13:14 | 42.90055 | 13.34793 | 38002 ft | 479 kts | 15° |
| 2026-05-07 13:14 | 42.96299 | 13.37955 | 38010 ft | 477 kts | 15° |
| 2026-05-07 13:15 | 43.02524 | 13.41112 | 38002 ft | 477 kts | 15° |
| 2026-05-07 13:15 | 43.08748 | 13.44275 | 38005 ft | 476 kts | 15° |
| 2026-05-07 13:16 | 43.14941 | 13.47430 | 38013 ft | 475 kts | 15° |
| 2026-05-07 13:16 | 43.21128 | 13.50588 | 37994 ft | 474 kts | 15° |
| 2026-05-07 13:17 | 43.27302 | 13.53746 | 37996 ft | 473 kts | 15° |
| 2026-05-07 13:17 | 43.33468 | 13.56907 | 38006 ft | 473 kts | 15° |
| 2026-05-07 13:18 | 43.39628 | 13.60072 | 38003 ft | 472 kts | 15° |
| 2026-05-07 13:18 | 43.45788 | 13.63243 | 38005 ft | 473 kts | 15° |
| 2026-05-07 13:19 | 43.51953 | 13.66424 | 38009 ft | 474 kts | 15° |
| 2026-05-07 13:19 | 43.58138 | 13.69623 | 38008 ft | 475 kts | 15° |
| 2026-05-07 13:20 | 43.64295 | 13.72814 | 38002 ft | 477 kts | 15° |
| 2026-05-07 13:20 | 43.70512 | 13.76043 | 38006 ft | 478 kts | 15° |
| 2026-05-07 13:21 | 43.76749 | 13.79290 | 38007 ft | 479 kts | 15° |
| 2026-05-07 13:21 | 43.83001 | 13.82553 | 38011 ft | 481 kts | 15° |
| 2026-05-07 13:22 | 43.89269 | 13.85832 | 37991 ft | 482 kts | 15° |
| 2026-05-07 13:22 | 43.95542 | 13.89121 | 38004 ft | 482 kts | 16° |
| 2026-05-07 13:23 | 44.01815 | 13.92417 | 38005 ft | 482 kts | 16° |
| 2026-05-07 13:23 | 44.08063 | 13.95833 | 38007 ft | 483 kts | 17° |
| 2026-05-07 13:24 | 44.14290 | 13.99327 | 38026 ft | 482 kts | 17° |
| 2026-05-07 13:24 | 44.20514 | 14.02820 | 38009 ft | 482 kts | 17° |
| 2026-05-07 13:25 | 44.26733 | 14.06303 | 38007 ft | 481 kts | 17° |
| 2026-05-07 13:25 | 44.32946 | 14.09783 | 38028 ft | 481 kts | 17° |
| 2026-05-07 13:26 | 44.39112 | 14.13242 | 38012 ft | 480 kts | 17° |
| 2026-05-07 13:26 | 44.45305 | 14.16726 | 38010 ft | 480 kts | 17° |
| 2026-05-07 13:27 | 44.51495 | 14.20216 | 38023 ft | 479 kts | 17° |
| 2026-05-07 13:27 | 44.57681 | 14.23712 | 38013 ft | 479 kts | 17° |
| 2026-05-07 13:28 | 44.62862 | 14.26647 | 38013 ft | 479 kts | 17° |
| 2026-05-07 13:28 | 44.70035 | 14.30719 | 38024 ft | 479 kts | 17° |
| 2026-05-07 13:29 | 44.76209 | 14.34232 | 38018 ft | 479 kts | 17° |
| 2026-05-07 13:29 | 44.82397 | 14.37762 | 38017 ft | 479 kts | 17° |
| 2026-05-07 13:30 | 44.88589 | 14.41301 | 38033 ft | 480 kts | 17° |
| 2026-05-07 13:30 | 44.94787 | 14.44853 | 38033 ft | 481 kts | 17° |
| 2026-05-07 13:31 | 45.00992 | 14.48418 | 38028 ft | 481 kts | 17° |
| 2026-05-07 13:31 | 45.07201 | 14.51992 | 38024 ft | 482 kts | 18° |
| 2026-05-07 13:32 | 45.13421 | 14.55582 | 38029 ft | 483 kts | 18° |
| 2026-05-07 13:32 | 45.19613 | 14.59165 | 38017 ft | 484 kts | 18° |
| 2026-05-07 13:33 | 45.25849 | 14.62780 | 38027 ft | 484 kts | 18° |
| 2026-05-07 13:33 | 45.32097 | 14.66412 | 38026 ft | 485 kts | 18° |
| 2026-05-07 13:34 | 45.41479 | 14.71882 | 38023 ft | 486 kts | 18° |
| 2026-05-07 13:35 | 45.47730 | 14.75537 | 38007 ft | 486 kts | 18° |
| 2026-05-07 13:35 | 45.53979 | 14.79200 | 37995 ft | 485 kts | 18° |
| 2026-05-07 13:36 | 45.60214 | 14.82864 | 38005 ft | 484 kts | 18° |
| 2026-05-07 13:36 | 45.66443 | 14.86533 | 37989 ft | 483 kts | 19° |
| 2026-05-07 13:37 | 45.72660 | 14.90203 | 37970 ft | 483 kts | 19° |
| 2026-05-07 13:37 | 45.78870 | 14.93878 | 37977 ft | 483 kts | 19° |
| 2026-05-07 13:38 | 45.85075 | 14.97560 | 37965 ft | 483 kts | 19° |
| 2026-05-07 13:38 | 45.91290 | 15.01256 | 37971 ft | 483 kts | 19° |
| 2026-05-07 13:39 | 45.97488 | 15.04950 | 37986 ft | 483 kts | 19° |
| 2026-05-07 13:39 | 46.03697 | 15.08660 | 37971 ft | 484 kts | 19° |
| 2026-05-07 13:40 | 46.09909 | 15.12383 | 37974 ft | 483 kts | 19° |
| 2026-05-07 13:40 | 46.16083 | 15.16089 | 37962 ft | 484 kts | 19° |
| 2026-05-07 13:41 | 46.22329 | 15.19848 | 37952 ft | 487 kts | 19° |
| 2026-05-07 13:41 | 46.27552 | 15.22999 | 38022 ft | 491 kts | 19° |
| 2026-05-07 13:41 | 46.31766 | 15.25546 | 38346 ft | 490 kts | 19° |
| 2026-05-07 13:42 | 46.33849 | 15.26808 | 38533 ft | 489 kts | 19° |
| 2026-05-07 13:42 | 46.36978 | 15.28705 | 38792 ft | 486 kts | 19° |
| 2026-05-07 13:42 | 46.40091 | 15.30595 | 38950 ft | 485 kts | 19° |
| 2026-05-07 13:43 | 46.46343 | 15.34394 | 38939 ft | 488 kts | 19° |
| 2026-05-07 13:43 | 46.52597 | 15.38205 | 38941 ft | 486 kts | 19° |
| 2026-05-07 13:44 | 46.58827 | 15.42010 | 38951 ft | 485 kts | 20° |
| 2026-05-07 13:44 | 46.65055 | 15.45823 | 38937 ft | 485 kts | 20° |
| 2026-05-07 13:45 | 46.71275 | 15.49642 | 38921 ft | 484 kts | 20° |
| 2026-05-07 13:45 | 46.77461 | 15.53450 | 38924 ft | 481 kts | 20° |
| 2026-05-07 13:46 | 46.83618 | 15.57249 | 38912 ft | 479 kts | 20° |
| 2026-05-07 13:46 | 46.89701 | 15.61011 | 38913 ft | 477 kts | 20° |
| 2026-05-07 13:47 | 46.95846 | 15.64821 | 38926 ft | 477 kts | 20° |
| 2026-05-07 13:47 | 47.01956 | 15.68617 | 38932 ft | 478 kts | 20° |
| 2026-05-07 13:48 | 47.08058 | 15.72419 | 38920 ft | 481 kts | 20° |
| 2026-05-07 13:48 | 47.14259 | 15.76293 | 38959 ft | 482 kts | 21° |
| 2026-05-07 13:49 | 47.20448 | 15.80168 | 38949 ft | 484 kts | 21° |
| 2026-05-07 13:49 | 47.26623 | 15.84046 | 38954 ft | 486 kts | 21° |
| 2026-05-07 13:50 | 47.32861 | 15.87973 | 38960 ft | 488 kts | 21° |
| 2026-05-07 13:50 | 47.39109 | 15.91916 | 38958 ft | 489 kts | 21° |
| 2026-05-07 13:51 | 47.45374 | 15.95881 | 38954 ft | 490 kts | 21° |
| 2026-05-07 13:51 | 47.51646 | 15.99860 | 38956 ft | 491 kts | 21° |
| 2026-05-07 13:52 | 47.57922 | 16.03852 | 38957 ft | 490 kts | 21° |
| 2026-05-07 13:52 | 47.64188 | 16.07849 | 38960 ft | 490 kts | 21° |
| 2026-05-07 13:53 | 47.70449 | 16.11852 | 38965 ft | 490 kts | 21° |
| 2026-05-07 13:53 | 47.76665 | 16.15837 | 38964 ft | 490 kts | 21° |
| 2026-05-07 13:54 | 47.82921 | 16.19858 | 38950 ft | 489 kts | 21° |
| 2026-05-07 13:54 | 47.89158 | 16.23878 | 38959 ft | 487 kts | 21° |
| 2026-05-07 13:55 | 47.95368 | 16.27890 | 38961 ft | 486 kts | 21° |
| 2026-05-07 13:55 | 48.01561 | 16.31903 | 38957 ft | 484 kts | 21° |
| 2026-05-07 13:56 | 48.07739 | 16.35916 | 38958 ft | 483 kts | 21° |
| 2026-05-07 13:56 | 48.13897 | 16.39926 | 38970 ft | 482 kts | 21° |
| 2026-05-07 13:57 | 48.20044 | 16.43940 | 38967 ft | 481 kts | 21° |
| 2026-05-07 13:57 | 48.26141 | 16.47932 | 38963 ft | 481 kts | 22° |
| 2026-05-07 13:58 | 48.32275 | 16.51958 | 38960 ft | 481 kts | 22° |
| 2026-05-07 13:58 | 48.38402 | 16.55990 | 38956 ft | 481 kts | 22° |
| 2026-05-07 13:59 | 48.44540 | 16.60041 | 38944 ft | 481 kts | 22° |
| 2026-05-07 13:59 | 48.50676 | 16.64101 | 38940 ft | 482 kts | 22° |
| 2026-05-07 14:00 | 48.56827 | 16.68182 | 38928 ft | 483 kts | 22° |
| 2026-05-07 14:00 | 48.62983 | 16.72278 | 38940 ft | 484 kts | 22° |
| 2026-05-07 14:01 | 48.69146 | 16.76388 | 38937 ft | 485 kts | 22° |
| 2026-05-07 14:01 | 48.75157 | 16.81054 | 38888 ft | 488 kts | 33° |
| 2026-05-07 14:01 | 48.77967 | 16.84011 | 38415 ft | 495 kts | 35° |
| 2026-05-07 14:02 | 48.80754 | 16.87056 | 37800 ft | 494 kts | 36° |
| 2026-05-07 14:02 | 48.83508 | 16.90156 | 37237 ft | 492 kts | 40° |
| 2026-05-07 14:02 | 48.86036 | 16.93639 | 36643 ft | 490 kts | 45° |
| 2026-05-07 14:02 | 48.88446 | 16.97310 | 35994 ft | 491 kts | 47° |
| 2026-05-07 14:03 | 48.90788 | 17.01000 | 35443 ft | 491 kts | 48° |
| 2026-05-07 14:03 | 48.93144 | 17.04738 | 35008 ft | 488 kts | 48° |
| 2026-05-07 14:03 | 48.95490 | 17.08434 | 34653 ft | 483 kts | 48° |
| 2026-05-07 14:03 | 48.97823 | 17.12078 | 34291 ft | 479 kts | 47° |
| 2026-05-07 14:04 | 49.00151 | 17.15687 | 33842 ft | 477 kts | 47° |
| 2026-05-07 14:04 | 49.02471 | 17.19268 | 33334 ft | 475 kts | 47° |
| 2026-05-07 14:04 | 49.04788 | 17.22838 | 32870 ft | 472 kts | 47° |
| 2026-05-07 14:04 | 49.07094 | 17.26389 | 32471 ft | 468 kts | 47° |
| 2026-05-07 14:05 | 49.09375 | 17.29907 | 32071 ft | 464 kts | 47° |
| 2026-05-07 14:05 | 49.11637 | 17.33401 | 31667 ft | 461 kts | 48° |
| 2026-05-07 14:05 | 49.13879 | 17.36872 | 31283 ft | 457 kts | 48° |
| 2026-05-07 14:05 | 49.16107 | 17.40324 | 30859 ft | 455 kts | 48° |
| 2026-05-07 14:06 | 49.18322 | 17.43765 | 30451 ft | 453 kts | 48° |
| 2026-05-07 14:06 | 49.20522 | 17.47186 | 30070 ft | 449 kts | 48° |
| 2026-05-07 14:06 | 49.22704 | 17.50585 | 29619 ft | 446 kts | 49° |
| 2026-05-07 14:06 | 49.24869 | 17.53961 | 29166 ft | 443 kts | 49° |
| 2026-05-07 14:07 | 49.27020 | 17.57319 | 28708 ft | 440 kts | 49° |
| 2026-05-07 14:07 | 49.29156 | 17.60660 | 28272 ft | 437 kts | 49° |
| 2026-05-07 14:07 | 49.31276 | 17.63978 | 27864 ft | 434 kts | 49° |
| 2026-05-07 14:07 | 49.33375 | 17.67269 | 27465 ft | 431 kts | 49° |
| 2026-05-07 14:08 | 49.35465 | 17.70549 | 27042 ft | 428 kts | 49° |
| 2026-05-07 14:08 | 49.37536 | 17.73805 | 26632 ft | 426 kts | 49° |
| 2026-05-07 14:08 | 49.39597 | 17.77047 | 26228 ft | 423 kts | 49° |
| 2026-05-07 14:08 | 49.41648 | 17.80280 | 25797 ft | 421 kts | 49° |
| 2026-05-07 14:09 | 49.43659 | 17.83453 | 25387 ft | 419 kts | 49° |
| 2026-05-07 14:09 | 49.45683 | 17.86650 | 25025 ft | 416 kts | 49° |
| 2026-05-07 14:09 | 49.47694 | 17.89830 | 24653 ft | 413 kts | 49° |
| 2026-05-07 14:09 | 49.49714 | 17.93030 | 24243 ft | 412 kts | 49° |
| 2026-05-07 14:10 | 49.51685 | 17.96155 | 23838 ft | 411 kts | 49° |
| 2026-05-07 14:10 | 49.53669 | 17.99306 | 23473 ft | 409 kts | 49° |
| 2026-05-07 14:10 | 49.55641 | 18.02442 | 23064 ft | 406 kts | 49° |
| 2026-05-07 14:10 | 49.57622 | 18.05595 | 22675 ft | 402 kts | 49° |
| 2026-05-07 14:11 | 49.59535 | 18.08642 | 22300 ft | 400 kts | 49° |
| 2026-05-07 14:11 | 49.61459 | 18.11711 | 21913 ft | 397 kts | 49° |
| 2026-05-07 14:11 | 49.63370 | 18.14764 | 21514 ft | 394 kts | 49° |
| 2026-05-07 14:11 | 49.65261 | 18.17788 | 21074 ft | 389 kts | 49° |
| 2026-05-07 14:12 | 49.67134 | 18.20787 | 20536 ft | 387 kts | 48° |
| 2026-05-07 14:12 | 49.68997 | 18.23776 | 20037 ft | 385 kts | 48° |
| 2026-05-07 14:12 | 49.70846 | 18.26743 | 19586 ft | 381 kts | 47° |
| 2026-05-07 14:12 | 49.72674 | 18.29681 | 19141 ft | 378 kts | 47° |
| 2026-05-07 14:13 | 49.74487 | 18.32598 | 18690 ft | 375 kts | 47° |
| 2026-05-07 14:13 | 49.76286 | 18.35496 | 18241 ft | 372 kts | 47° |
| 2026-05-07 14:13 | 49.78068 | 18.38368 | 17773 ft | 367 kts | 48° |
| 2026-05-07 14:13 | 49.79815 | 18.41187 | 17394 ft | 360 kts | 48° |
| 2026-05-07 14:14 | 49.81537 | 18.43969 | 16934 ft | 357 kts | 48° |
| 2026-05-07 14:14 | 49.83245 | 18.46732 | 16459 ft | 354 kts | 48° |
| 2026-05-07 14:14 | 49.84940 | 18.49478 | 16003 ft | 350 kts | 48° |
| 2026-05-07 14:14 | 49.86612 | 18.52188 | 15581 ft | 346 kts | 47° |
| 2026-05-07 14:15 | 49.88267 | 18.54875 | 15140 ft | 343 kts | 47° |
| 2026-05-07 14:15 | 49.89905 | 18.57537 | 14699 ft | 340 kts | 47° |
| 2026-05-07 14:15 | 49.91531 | 18.60181 | 14274 ft | 337 kts | 47° |
| 2026-05-07 14:15 | 49.93144 | 18.62807 | 13855 ft | 334 kts | 47° |
| 2026-05-07 14:16 | 49.94720 | 18.65375 | 13413 ft | 331 kts | 47° |
| 2026-05-07 14:16 | 49.96295 | 18.67945 | 13048 ft | 325 kts | 47° |
| 2026-05-07 14:16 | 49.97836 | 18.70462 | 12709 ft | 320 kts | 47° |
| 2026-05-07 14:16 | 49.99367 | 18.72965 | 12386 ft | 319 kts | 47° |
| 2026-05-07 14:17 | 50.00893 | 18.75462 | 12060 ft | 320 kts | 47° |
| 2026-05-07 14:17 | 50.02429 | 18.77979 | 11736 ft | 322 kts | 47° |
| 2026-05-07 14:17 | 50.03968 | 18.80503 | 11415 ft | 320 kts | 47° |
| 2026-05-07 14:17 | 50.05484 | 18.82991 | 11077 ft | 314 kts | 47° |
| 2026-05-07 14:18 | 50.06980 | 18.85449 | 10765 ft | 313 kts | 46° |
| 2026-05-07 14:18 | 50.08479 | 18.87914 | 10449 ft | 313 kts | 46° |
| 2026-05-07 14:18 | 50.09970 | 18.90368 | 10237 ft | 311 kts | 46° |
| 2026-05-07 14:18 | 50.11443 | 18.92795 | 10096 ft | 305 kts | 46° |
| 2026-05-07 14:19 | 50.12875 | 18.95157 | 9898 ft | 295 kts | 46° |
| 2026-05-07 14:19 | 50.14272 | 18.97463 | 9586 ft | 290 kts | 46° |
| 2026-05-07 14:19 | 50.15655 | 18.99748 | 9302 ft | 290 kts | 46° |
| 2026-05-07 14:19 | 50.17048 | 19.02051 | 9044 ft | 294 kts | 46° |
| 2026-05-07 14:20 | 50.18431 | 19.04339 | 8757 ft | 292 kts | 46° |
| 2026-05-07 14:20 | 50.19820 | 19.06641 | 8473 ft | 291 kts | 46° |
| 2026-05-07 14:20 | 50.21203 | 19.08935 | 8197 ft | 289 kts | 46° |
| 2026-05-07 14:20 | 50.22576 | 19.11213 | 7930 ft | 287 kts | 46° |
| 2026-05-07 14:21 | 50.23943 | 19.13484 | 7647 ft | 286 kts | 46° |
| 2026-05-07 14:21 | 50.25306 | 19.15750 | 7376 ft | 286 kts | 46° |
| 2026-05-07 14:21 | 50.26663 | 19.18009 | 7096 ft | 285 kts | 46° |
| 2026-05-07 14:21 | 50.28018 | 19.20266 | 6816 ft | 284 kts | 46° |
| 2026-05-07 14:22 | 50.29363 | 19.22508 | 6546 ft | 282 kts | 46° |
| 2026-05-07 14:22 | 50.30703 | 19.24744 | 6273 ft | 281 kts | 46° |
| 2026-05-07 14:22 | 50.32034 | 19.26969 | 5986 ft | 279 kts | 45° |
| 2026-05-07 14:22 | 50.33358 | 19.29180 | 5703 ft | 277 kts | 46° |
| 2026-05-07 14:23 | 50.34671 | 19.31377 | 5494 ft | 274 kts | 45° |
| 2026-05-07 14:23 | 50.35952 | 19.33522 | 5376 ft | 266 kts | 46° |
| 2026-05-07 14:23 | 50.37201 | 19.35615 | 5255 ft | 259 kts | 46° |
| 2026-05-07 14:23 | 50.38510 | 19.37480 | 5112 ft | 250 kts | 26° |
| 2026-05-07 14:24 | 50.40145 | 19.38167 | 4948 ft | 240 kts | 0° |
| 2026-05-07 14:24 | 50.41776 | 19.38238 | 4852 ft | 231 kts | 357° |
| 2026-05-07 14:24 | 50.43343 | 19.38235 | 4755 ft | 219 kts | 357° |
| 2026-05-07 14:24 | 50.44832 | 19.38238 | 4509 ft | 214 kts | 356° |
| 2026-05-07 14:25 | 50.46252 | 19.37963 | 4351 ft | 197 kts | 330° |
| 2026-05-07 14:25 | 50.47101 | 19.36497 | 4267 ft | 174 kts | 283° |
| 2026-05-07 14:25 | 50.47309 | 19.34684 | 4077 ft | 172 kts | 275° |
| 2026-05-07 14:25 | 50.47459 | 19.32827 | 3861 ft | 171 kts | 274° |
| 2026-05-07 14:26 | 50.47551 | 19.30972 | 3638 ft | 171 kts | 270° |
| 2026-05-07 14:26 | 50.47576 | 19.29108 | 3421 ft | 171 kts | 269° |
| 2026-05-07 14:26 | 50.47581 | 19.27262 | 3186 ft | 166 kts | 268° |
| 2026-05-07 14:26 | 50.47581 | 19.25506 | 2990 ft | 153 kts | 268° |
| 2026-05-07 14:27 | 50.47582 | 19.23828 | 2769 ft | 153 kts | 269° |
| 2026-05-07 14:27 | 50.47582 | 19.22182 | 2568 ft | 149 kts | 269° |
| 2026-05-07 14:27 | 50.47584 | 19.20567 | 2382 ft | 146 kts | 269° |
| 2026-05-07 14:27 | 50.47585 | 19.18969 | 2178 ft | 146 kts | 270° |
| 2026-05-07 14:28 | 50.47586 | 19.17367 | 1983 ft | 148 kts | 271° |
| 2026-05-07 14:28 | 50.47588 | 19.15746 | 1779 ft | 149 kts | 271° |
| 2026-05-07 14:28 | 50.47592 | 19.14126 | 1580 ft | 149 kts | 271° |
| 2026-05-07 14:28 | 50.47593 | 19.12471 | 1350 ft | 154 kts | 270° |
| 2026-05-07 14:29 | 50.47592 | 19.10784 | 1138 ft | 155 kts | 271° |
| 2026-05-07 14:29 | 50.47595 | 19.09660 | 1012 ft | 156 kts | 271° |
| 2026-05-07 14:29 | 50.47599 | 19.08165 | 997 ft | 107 kts | 270° |
| 2026-05-07 14:29 | 50.47600 | 19.07357 | 1000 ft | 42 kts | 268° |
| 2026-05-07 14:30 | 50.47527 | 19.06961 | 1001 ft | 22 kts | 240° |
| 2026-05-07 14:30 | 50.47476 | 19.06820 | 1001 ft | 22 kts | 240° |
| 2026-05-07 14:30 | 50.47409 | 19.06648 | 999 ft | 13 kts | 224° |
| 2026-05-07 14:30 | 50.47322 | 19.06626 | 997 ft | 13 kts | 181° |
| 2026-05-07 14:31 | 50.47251 | 19.06654 | 997 ft | 10 kts | 131° |
| 2026-05-07 14:31 | 50.47237 | 19.06761 | 997 ft | 10 kts | 92° |
| 2026-05-07 14:31 | 50.47236 | 19.06868 | 999 ft | 10 kts | 91° |
| 2026-05-07 14:31 | 50.47236 | 19.06974 | 1000 ft | 10 kts | 90° |
| 2026-05-07 14:32 | 50.47235 | 19.07076 | 997 ft | 9 kts | 90° |
| 2026-05-07 14:32 | 50.47233 | 19.07137 | 1001 ft | 4 kts | 112° |
| 2026-05-07 14:32 | 50.47207 | 19.07149 | 999 ft | 4 kts | 178° |
| 2026-05-07 14:32 | 50.47183 | 19.07149 | 997 ft | 0 kts | 180° |